sensor_id;sensor_type;location;lat;lon;timestamp;pressure;altitude;pressure_sealevel;temperature;humidity
65832;BME280;52593;42.648;23.332;2024-02-21T00:01:22;95161.22;;;4.20;90.77
65832;BME280;52593;42.648;23.332;2024-02-21T00:03:48;95156.34;;;4.04;91.11
65832;BME280;52593;42.648;23.332;2024-02-21T00:06:13;95166.78;;;4.17;91.37
65832;BME280;52593;42.648;23.332;2024-02-21T00:08:39;95163.78;;;4.31;89.95
65832;BME280;52593;42.648;23.332;2024-02-21T00:11:04;95151.19;;;4.23;89.73
65832;BME280;52593;42.648;23.332;2024-02-21T00:13:30;95161.66;;;4.25;89.90
65832;BME280;52593;42.648;23.332;2024-02-21T00:15:55;95162.84;;;4.32;89.28
65832;BME280;52593;42.648;23.332;2024-02-21T00:18:21;95150.50;;;4.21;89.90
65832;BME280;52593;42.648;23.332;2024-02-21T00:20:47;95152.53;;;4.18;89.84
65832;BME280;52593;42.648;23.332;2024-02-21T00:23:12;95152.50;;;4.08;90.49
65832;BME280;52593;42.648;23.332;2024-02-21T00:25:38;95151.41;;;4.10;90.82
65832;BME280;52593;42.648;23.332;2024-02-21T00:28:03;95151.19;;;4.23;90.94
65832;BME280;52593;42.648;23.332;2024-02-21T00:30:31;95152.03;;;4.24;90.66
65832;BME280;52593;42.648;23.332;2024-02-21T00:32:56;95154.28;;;4.28;89.72
65832;BME280;52593;42.648;23.332;2024-02-21T00:35:22;95145.19;;;4.21;90.54
65832;BME280;52593;42.648;23.332;2024-02-21T00:37:47;95154.81;;;4.22;90.24
65832;BME280;52593;42.648;23.332;2024-02-21T00:40:13;95146.09;;;4.10;90.65
65832;BME280;52593;42.648;23.332;2024-02-21T00:42:41;95149.84;;;4.08;90.54
65832;BME280;52593;42.648;23.332;2024-02-21T00:45:07;95145.25;;;4.10;90.98
65832;BME280;52593;42.648;23.332;2024-02-21T00:47:33;95148.94;;;3.98;91.83
65832;BME280;52593;42.648;23.332;2024-02-21T00:49:59;95143.97;;;3.83;92.79
65832;BME280;52593;42.648;23.332;2024-02-21T00:52:24;95158.28;;;3.81;93.28
65832;BME280;52593;42.648;23.332;2024-02-21T00:54:49;95150.47;;;3.79;93.66
65832;BME280;52593;42.648;23.332;2024-02-21T00:57:15;95151.41;;;3.78;93.51
65832;BME280;52593;42.648;23.332;2024-02-21T00:59:40;95140.13;;;3.76;93.74
65832;BME280;52593;42.648;23.332;2024-02-21T01:02:07;95142.66;;;3.78;93.86
65832;BME280;52593;42.648;23.332;2024-02-21T01:04:34;95132.44;;;3.73;94.54
65832;BME280;52593;42.648;23.332;2024-02-21T01:07:00;95125.22;;;3.75;94.04
65832;BME280;52593;42.648;23.332;2024-02-21T01:09:25;95125.88;;;3.88;94.01
65832;BME280;52593;42.648;23.332;2024-02-21T01:11:51;95124.44;;;3.84;93.67
65832;BME280;52593;42.648;23.332;2024-02-21T01:14:16;95116.06;;;3.79;93.86
65832;BME280;52593;42.648;23.332;2024-02-21T01:16:41;95108.75;;;3.71;93.95
65832;BME280;52593;42.648;23.332;2024-02-21T01:19:07;95116.56;;;3.73;94.07
65832;BME280;52593;42.648;23.332;2024-02-21T01:21:33;95120.16;;;3.72;93.85
65832;BME280;52593;42.648;23.332;2024-02-21T01:23:58;95119.09;;;3.74;94.03
65832;BME280;52593;42.648;23.332;2024-02-21T01:26:24;95114.88;;;3.72;94.01
65832;BME280;52593;42.648;23.332;2024-02-21T01:28:49;95112.56;;;3.79;93.70
65832;BME280;52593;42.648;23.332;2024-02-21T01:31:15;95114.97;;;3.82;92.76
65832;BME280;52593;42.648;23.332;2024-02-21T01:33:41;95113.97;;;3.83;92.16
65832;BME280;52593;42.648;23.332;2024-02-21T01:36:06;95111.69;;;3.89;91.88
65832;BME280;52593;42.648;23.332;2024-02-21T01:38:32;95101.53;;;3.95;91.76
65832;BME280;52593;42.648;23.332;2024-02-21T01:40:58;95110.91;;;3.99;91.67
65832;BME280;52593;42.648;23.332;2024-02-21T01:43:23;95104.91;;;3.97;91.38
65832;BME280;52593;42.648;23.332;2024-02-21T01:45:51;95103.53;;;4.02;90.91
65832;BME280;52593;42.648;23.332;2024-02-21T01:48:22;95094.94;;;4.10;90.27
65832;BME280;52593;42.648;23.332;2024-02-21T01:50:49;95096.66;;;4.21;89.59
65832;BME280;52593;42.648;23.332;2024-02-21T01:53:17;95093.19;;;4.20;89.02
65832;BME280;52593;42.648;23.332;2024-02-21T01:55:45;95091.69;;;4.27;88.33
65832;BME280;52593;42.648;23.332;2024-02-21T01:58:15;95083.03;;;4.25;88.02
65832;BME280;52593;42.648;23.332;2024-02-21T02:00:43;95089.56;;;4.21;88.27
65832;BME280;52593;42.648;23.332;2024-02-21T02:03:13;95085.53;;;4.27;87.41
65832;BME280;52593;42.648;23.332;2024-02-21T02:05:45;95087.78;;;4.32;87.28
65832;BME280;52593;42.648;23.332;2024-02-21T02:08:12;95081.94;;;4.28;87.51
65832;BME280;52593;42.648;23.332;2024-02-21T02:10:40;95094.34;;;4.27;86.74
65832;BME280;52593;42.648;23.332;2024-02-21T02:13:06;95093.03;;;4.43;86.20
65832;BME280;52593;42.648;23.332;2024-02-21T02:15:48;95090.63;;;4.40;86.24
65832;BME280;52593;42.648;23.332;2024-02-21T02:18:15;95092.09;;;4.23;86.88
65832;BME280;52593;42.648;23.332;2024-02-21T02:20:41;95085.66;;;4.25;87.24
65832;BME280;52593;42.648;23.332;2024-02-21T02:23:25;95083.75;;;4.27;87.83
65832;BME280;52593;42.648;23.332;2024-02-21T02:25:51;95093.75;;;4.24;88.05
65832;BME280;52593;42.648;23.332;2024-02-21T02:28:20;95088.72;;;4.21;88.37
65832;BME280;52593;42.648;23.332;2024-02-21T02:30:46;95078.72;;;4.24;87.35
65832;BME280;52593;42.648;23.332;2024-02-21T02:33:12;95082.44;;;4.22;87.52
65832;BME280;52593;42.648;23.332;2024-02-21T02:35:37;95077.41;;;4.19;87.58
65832;BME280;52593;42.648;23.332;2024-02-21T02:38:03;95067.72;;;4.29;87.42
65832;BME280;52593;42.648;23.332;2024-02-21T02:40:30;95076.38;;;4.31;87.10
65832;BME280;52593;42.648;23.332;2024-02-21T02:42:55;95068.41;;;4.31;86.84
65832;BME280;52593;42.648;23.332;2024-02-21T02:45:22;95075.56;;;4.40;87.04
65832;BME280;52593;42.648;23.332;2024-02-21T02:47:52;95079.19;;;4.39;86.65
65832;BME280;52593;42.648;23.332;2024-02-21T02:50:19;95073.72;;;4.31;86.45
65832;BME280;52593;42.648;23.332;2024-02-21T02:52:45;95083.38;;;4.42;86.81
65832;BME280;52593;42.648;23.332;2024-02-21T02:55:10;95084.59;;;4.38;86.51
65832;BME280;52593;42.648;23.332;2024-02-21T02:57:37;95083.50;;;4.40;86.80
65832;BME280;52593;42.648;23.332;2024-02-21T03:00:04;95072.88;;;4.31;86.88
65832;BME280;52593;42.648;23.332;2024-02-21T03:02:29;95078.97;;;4.21;87.14
65832;BME280;52593;42.648;23.332;2024-02-21T03:04:56;95079.16;;;4.29;87.37
65832;BME280;52593;42.648;23.332;2024-02-21T03:07:22;95083.47;;;4.31;87.13
65832;BME280;52593;42.648;23.332;2024-02-21T03:09:47;95071.31;;;4.28;86.93
65832;BME280;52593;42.648;23.332;2024-02-21T03:12:13;95078.31;;;4.29;87.44
65832;BME280;52593;42.648;23.332;2024-02-21T03:14:44;95079.72;;;4.33;86.97
65832;BME280;52593;42.648;23.332;2024-02-21T03:17:09;95092.53;;;4.28;87.43
65832;BME280;52593;42.648;23.332;2024-02-21T03:19:35;95096.59;;;4.32;86.97
65832;BME280;52593;42.648;23.332;2024-02-21T03:22:00;95087.19;;;4.18;87.80
65832;BME280;52593;42.648;23.332;2024-02-21T03:24:26;95084.94;;;4.14;87.95
65832;BME280;52593;42.648;23.332;2024-02-21T03:26:51;95091.97;;;4.24;87.69
65832;BME280;52593;42.648;23.332;2024-02-21T03:29:17;95099.63;;;4.27;88.17
65832;BME280;52593;42.648;23.332;2024-02-21T03:31:43;95096.88;;;4.29;88.01
65832;BME280;52593;42.648;23.332;2024-02-21T03:34:10;95096.13;;;4.27;87.94
65832;BME280;52593;42.648;23.332;2024-02-21T03:36:36;95103.28;;;4.36;87.51
65832;BME280;52593;42.648;23.332;2024-02-21T03:39:02;95105.00;;;4.47;87.46
65832;BME280;52593;42.648;23.332;2024-02-21T03:41:27;95106.97;;;4.45;87.63
65832;BME280;52593;42.648;23.332;2024-02-21T03:43:53;95113.28;;;4.54;87.39
65832;BME280;52593;42.648;23.332;2024-02-21T03:46:18;95112.31;;;4.55;87.07
65832;BME280;52593;42.648;23.332;2024-02-21T03:48:43;95112.56;;;4.52;87.01
65832;BME280;52593;42.648;23.332;2024-02-21T03:51:10;95101.09;;;4.41;87.07
65832;BME280;52593;42.648;23.332;2024-02-21T03:53:36;95106.13;;;4.44;86.73
65832;BME280;52593;42.648;23.332;2024-02-21T03:56:02;95112.41;;;4.43;87.29
65832;BME280;52593;42.648;23.332;2024-02-21T03:58:32;95104.44;;;4.43;86.62
65832;BME280;52593;42.648;23.332;2024-02-21T04:01:00;95103.69;;;4.32;87.47
65832;BME280;52593;42.648;23.332;2024-02-21T04:03:26;95109.13;;;4.30;87.58
65832;BME280;52593;42.648;23.332;2024-02-21T04:05:52;95108.59;;;4.36;87.54
65832;BME280;52593;42.648;23.332;2024-02-21T04:08:17;95106.06;;;4.35;87.26
65832;BME280;52593;42.648;23.332;2024-02-21T04:10:43;95100.59;;;4.26;87.56
65832;BME280;52593;42.648;23.332;2024-02-21T04:13:09;95100.22;;;4.31;87.53
65832;BME280;52593;42.648;23.332;2024-02-21T04:15:34;95110.00;;;4.40;87.24
65832;BME280;52593;42.648;23.332;2024-02-21T04:18:00;95101.38;;;4.38;87.31
65832;BME280;52593;42.648;23.332;2024-02-21T04:20:26;95099.50;;;4.29;87.94
65832;BME280;52593;42.648;23.332;2024-02-21T04:22:51;95100.16;;;4.52;87.46
65832;BME280;52593;42.648;23.332;2024-02-21T04:25:17;95107.00;;;4.55;86.42
65832;BME280;52593;42.648;23.332;2024-02-21T04:27:42;95105.88;;;4.47;86.35
65832;BME280;52593;42.648;23.332;2024-02-21T04:30:09;95106.00;;;4.46;87.26
65832;BME280;52593;42.648;23.332;2024-02-21T04:32:35;95105.88;;;4.47;86.69
65832;BME280;52593;42.648;23.332;2024-02-21T04:35:01;95102.19;;;4.39;87.05
65832;BME280;52593;42.648;23.332;2024-02-21T04:37:26;95103.06;;;4.18;88.12
65832;BME280;52593;42.648;23.332;2024-02-21T04:39:52;95105.84;;;4.17;88.37
65832;BME280;52593;42.648;23.332;2024-02-21T04:42:17;95106.13;;;4.14;88.68
65832;BME280;52593;42.648;23.332;2024-02-21T04:44:43;95103.41;;;4.04;88.69
65832;BME280;52593;42.648;23.332;2024-02-21T04:47:08;95109.84;;;4.11;88.64
65832;BME280;52593;42.648;23.332;2024-02-21T04:49:34;95100.47;;;4.07;88.46
65832;BME280;52593;42.648;23.332;2024-02-21T04:52:00;95111.84;;;3.98;88.97
65832;BME280;52593;42.648;23.332;2024-02-21T04:54:25;95109.28;;;3.86;89.48
65832;BME280;52593;42.648;23.332;2024-02-21T04:56:51;95096.19;;;3.85;89.94
65832;BME280;52593;42.648;23.332;2024-02-21T04:59:17;95108.38;;;3.76;90.34
65832;BME280;52593;42.648;23.332;2024-02-21T05:01:42;95097.72;;;3.66;90.67
65832;BME280;52593;42.648;23.332;2024-02-21T05:04:08;95105.78;;;3.65;90.90
65832;BME280;52593;42.648;23.332;2024-02-21T05:06:40;95097.34;;;3.71;90.58
65832;BME280;52593;42.648;23.332;2024-02-21T05:09:06;95105.91;;;3.63;90.64
65832;BME280;52593;42.648;23.332;2024-02-21T05:11:32;95108.22;;;3.56;90.94
65832;BME280;52593;42.648;23.332;2024-02-21T05:13:57;95114.16;;;3.70;90.96
65832;BME280;52593;42.648;23.332;2024-02-21T05:16:23;95119.16;;;3.63;90.50
65832;BME280;52593;42.648;23.332;2024-02-21T05:18:48;95115.38;;;3.66;89.92
65832;BME280;52593;42.648;23.332;2024-02-21T05:21:14;95123.13;;;3.57;90.02
65832;BME280;52593;42.648;23.332;2024-02-21T05:23:39;95123.84;;;3.60;90.20
65832;BME280;52593;42.648;23.332;2024-02-21T05:26:05;95117.72;;;3.59;90.17
65832;BME280;52593;42.648;23.332;2024-02-21T05:28:31;95115.13;;;3.69;89.99
65832;BME280;52593;42.648;23.332;2024-02-21T05:30:57;95128.63;;;3.66;89.18
65832;BME280;52593;42.648;23.332;2024-02-21T05:33:22;95128.41;;;3.57;89.31
65832;BME280;52593;42.648;23.332;2024-02-21T05:35:48;95114.31;;;3.68;88.54
65832;BME280;52593;42.648;23.332;2024-02-21T05:38:14;95126.69;;;3.68;88.54
65832;BME280;52593;42.648;23.332;2024-02-21T05:40:40;95124.00;;;3.79;87.90
65832;BME280;52593;42.648;23.332;2024-02-21T05:43:07;95116.44;;;3.74;88.17
65832;BME280;52593;42.648;23.332;2024-02-21T05:45:32;95122.16;;;3.80;87.75
65832;BME280;52593;42.648;23.332;2024-02-21T05:47:58;95117.53;;;3.93;86.26
65832;BME280;52593;42.648;23.332;2024-02-21T05:50:23;95122.31;;;3.99;86.71
65832;BME280;52593;42.648;23.332;2024-02-21T05:52:53;95135.50;;;4.10;85.89
65832;BME280;52593;42.648;23.332;2024-02-21T05:55:19;95131.88;;;4.11;85.56
65832;BME280;52593;42.648;23.332;2024-02-21T05:57:45;95131.47;;;4.16;85.75
65832;BME280;52593;42.648;23.332;2024-02-21T06:00:11;95137.94;;;4.23;85.56
65832;BME280;52593;42.648;23.332;2024-02-21T06:02:36;95131.22;;;4.40;83.75
65832;BME280;52593;42.648;23.332;2024-02-21T06:05:02;95131.34;;;4.39;83.78
65832;BME280;52593;42.648;23.332;2024-02-21T06:07:27;95134.28;;;4.45;83.20
65832;BME280;52593;42.648;23.332;2024-02-21T06:09:53;95137.59;;;4.38;83.26
65832;BME280;52593;42.648;23.332;2024-02-21T06:12:18;95134.03;;;4.49;82.86
65832;BME280;52593;42.648;23.332;2024-02-21T06:14:44;95150.69;;;4.60;81.88
65832;BME280;52593;42.648;23.332;2024-02-21T06:17:10;95140.88;;;4.51;81.86
65832;BME280;52593;42.648;23.332;2024-02-21T06:19:35;95148.78;;;4.62;82.18
65832;BME280;52593;42.648;23.332;2024-02-21T06:22:01;95151.75;;;4.79;82.22
65832;BME280;52593;42.648;23.332;2024-02-21T06:24:26;95156.34;;;4.77;81.67
65832;BME280;52593;42.648;23.332;2024-02-21T06:26:52;95155.66;;;4.75;81.20
65832;BME280;52593;42.648;23.332;2024-02-21T06:29:17;95166.59;;;4.91;81.56
65832;BME280;52593;42.648;23.332;2024-02-21T06:31:43;95168.00;;;4.95;81.01
65832;BME280;52593;42.648;23.332;2024-02-21T06:34:08;95178.75;;;4.94;80.53
65832;BME280;52593;42.648;23.332;2024-02-21T06:36:33;95152.63;;;4.89;80.34
65832;BME280;52593;42.648;23.332;2024-02-21T06:38:59;95165.72;;;5.12;80.90
65832;BME280;52593;42.648;23.332;2024-02-21T06:41:24;95162.78;;;5.15;79.99
65832;BME280;52593;42.648;23.332;2024-02-21T06:43:50;95173.41;;;5.15;79.41
65832;BME280;52593;42.648;23.332;2024-02-21T06:46:28;95173.94;;;5.09;80.18
65832;BME280;52593;42.648;23.332;2024-02-21T06:48:54;95184.69;;;5.07;80.78
65832;BME280;52593;42.648;23.332;2024-02-21T06:51:22;95189.03;;;5.18;80.03
65832;BME280;52593;42.648;23.332;2024-02-21T06:53:48;95180.81;;;5.31;80.02
65832;BME280;52593;42.648;23.332;2024-02-21T06:56:13;95192.06;;;5.54;79.28
65832;BME280;52593;42.648;23.332;2024-02-21T06:58:39;95198.56;;;5.30;78.96
65832;BME280;52593;42.648;23.332;2024-02-21T07:01:04;95188.50;;;5.34;79.44
65832;BME280;52593;42.648;23.332;2024-02-21T07:03:30;95188.97;;;5.49;79.35
65832;BME280;52593;42.648;23.332;2024-02-21T07:05:55;95179.88;;;5.42;79.85
65832;BME280;52593;42.648;23.332;2024-02-21T07:08:21;95187.16;;;5.49;79.90
65832;BME280;52593;42.648;23.332;2024-02-21T07:10:47;95184.09;;;5.54;78.83
65832;BME280;52593;42.648;23.332;2024-02-21T07:13:12;95185.09;;;5.53;79.48
65832;BME280;52593;42.648;23.332;2024-02-21T07:15:39;95183.13;;;5.45;79.63
65832;BME280;52593;42.648;23.332;2024-02-21T07:18:05;95186.88;;;5.43;79.42
65832;BME280;52593;42.648;23.332;2024-02-21T07:20:30;95181.97;;;5.48;78.87
65832;BME280;52593;42.648;23.332;2024-02-21T07:22:56;95195.28;;;5.58;79.40
65832;BME280;52593;42.648;23.332;2024-02-21T07:25:21;95187.75;;;5.53;79.79
65832;BME280;52593;42.648;23.332;2024-02-21T07:27:46;95196.06;;;5.39;79.74
65832;BME280;52593;42.648;23.332;2024-02-21T07:30:12;95191.09;;;5.55;79.45
65832;BME280;52593;42.648;23.332;2024-02-21T07:32:38;95203.94;;;5.50;80.04
65832;BME280;52593;42.648;23.332;2024-02-21T07:35:04;95201.56;;;5.57;80.19
65832;BME280;52593;42.648;23.332;2024-02-21T07:37:30;95199.06;;;5.55;80.19
65832;BME280;52593;42.648;23.332;2024-02-21T07:39:56;95200.44;;;5.49;80.31
65832;BME280;52593;42.648;23.332;2024-02-21T07:42:21;95193.88;;;5.44;80.29
65832;BME280;52593;42.648;23.332;2024-02-21T07:44:47;95202.94;;;5.51;80.68
65832;BME280;52593;42.648;23.332;2024-02-21T07:47:12;95196.94;;;5.59;79.26
65832;BME280;52593;42.648;23.332;2024-02-21T07:49:43;95196.25;;;5.66;79.61
65832;BME280;52593;42.648;23.332;2024-02-21T07:52:09;95199.63;;;5.78;79.13
65832;BME280;52593;42.648;23.332;2024-02-21T07:54:34;95195.16;;;5.79;78.45
65832;BME280;52593;42.648;23.332;2024-02-21T07:57:00;95189.88;;;5.88;78.22
65832;BME280;52593;42.648;23.332;2024-02-21T07:59:25;95185.44;;;5.99;77.87
65832;BME280;52593;42.648;23.332;2024-02-21T08:01:51;95184.13;;;5.83;78.18
65832;BME280;52593;42.648;23.332;2024-02-21T08:04:16;95185.38;;;5.89;78.21
65832;BME280;52593;42.648;23.332;2024-02-21T08:06:42;95188.09;;;5.99;78.04
65832;BME280;52593;42.648;23.332;2024-02-21T08:09:08;95185.44;;;5.99;77.48
65832;BME280;52593;42.648;23.332;2024-02-21T08:11:33;95193.41;;;6.09;77.94
65832;BME280;52593;42.648;23.332;2024-02-21T08:13:59;95183.47;;;6.11;77.38
65832;BME280;52593;42.648;23.332;2024-02-21T08:16:25;95179.00;;;6.01;77.78
65832;BME280;52593;42.648;23.332;2024-02-21T08:18:51;95183.03;;;6.15;77.92
65832;BME280;52593;42.648;23.332;2024-02-21T08:21:17;95182.03;;;6.46;77.22
65832;BME280;52593;42.648;23.332;2024-02-21T08:23:42;95180.50;;;6.53;75.91
65832;BME280;52593;42.648;23.332;2024-02-21T08:26:08;95178.50;;;6.65;74.86
65832;BME280;52593;42.648;23.332;2024-02-21T08:28:33;95163.50;;;6.73;73.27
65832;BME280;52593;42.648;23.332;2024-02-21T08:30:59;95169.81;;;6.72;73.84
65832;BME280;52593;42.648;23.332;2024-02-21T08:33:24;95177.13;;;6.60;74.63
65832;BME280;52593;42.648;23.332;2024-02-21T08:35:51;95174.84;;;6.66;74.43
65832;BME280;52593;42.648;23.332;2024-02-21T08:38:17;95165.06;;;6.56;74.25
65832;BME280;52593;42.648;23.332;2024-02-21T08:40:43;95161.41;;;6.77;73.64
65832;BME280;52593;42.648;23.332;2024-02-21T08:43:08;95165.84;;;6.76;73.75
65832;BME280;52593;42.648;23.332;2024-02-21T08:45:33;95176.72;;;6.93;73.31
65832;BME280;52593;42.648;23.332;2024-02-21T08:47:59;95171.47;;;6.73;73.08
65832;BME280;52593;42.648;23.332;2024-02-21T08:50:24;95162.56;;;6.55;73.17
65832;BME280;52593;42.648;23.332;2024-02-21T08:52:50;95166.03;;;6.65;72.76
65832;BME280;52593;42.648;23.332;2024-02-21T08:55:16;95174.88;;;6.56;72.76
65832;BME280;52593;42.648;23.332;2024-02-21T08:57:41;95182.09;;;6.73;72.74
65832;BME280;52593;42.648;23.332;2024-02-21T09:00:07;95175.16;;;6.53;72.62
65832;BME280;52593;42.648;23.332;2024-02-21T09:02:41;95166.84;;;6.75;72.52
65832;BME280;52593;42.648;23.332;2024-02-21T09:05:10;95176.63;;;6.85;69.90
65832;BME280;52593;42.648;23.332;2024-02-21T09:07:36;95166.31;;;7.00;70.19
65832;BME280;52593;42.648;23.332;2024-02-21T09:10:01;95176.09;;;7.09;70.02
65832;BME280;52593;42.648;23.332;2024-02-21T09:12:28;95180.50;;;7.00;70.27
65832;BME280;52593;42.648;23.332;2024-02-21T09:14:53;95177.03;;;6.90;70.18
65832;BME280;52593;42.648;23.332;2024-02-21T09:17:19;95177.03;;;6.90;70.52
65832;BME280;52593;42.648;23.332;2024-02-21T09:19:48;95174.94;;;6.84;70.71
65832;BME280;52593;42.648;23.332;2024-02-21T09:22:14;95182.19;;;6.91;70.62
65832;BME280;52593;42.648;23.332;2024-02-21T09:24:39;95175.34;;;6.89;70.57
65832;BME280;52593;42.648;23.332;2024-02-21T09:27:05;95174.50;;;6.88;70.90
65832;BME280;52593;42.648;23.332;2024-02-21T09:29:31;95171.16;;;6.86;70.90
65832;BME280;52593;42.648;23.332;2024-02-21T09:31:59;95168.06;;;6.91;70.57
65832;BME280;52593;42.648;23.332;2024-02-21T09:34:24;95179.00;;;6.88;71.11
65832;BME280;52593;42.648;23.332;2024-02-21T09:36:50;95174.03;;;6.65;72.36
65832;BME280;52593;42.648;23.332;2024-02-21T09:39:15;95159.03;;;6.74;72.20
65832;BME280;52593;42.648;23.332;2024-02-21T09:41:47;95179.44;;;6.73;72.13
65832;BME280;52593;42.648;23.332;2024-02-21T09:44:13;95173.84;;;6.76;72.70
65832;BME280;52593;42.648;23.332;2024-02-21T09:47:04;95186.06;;;6.69;73.06
65832;BME280;52593;42.648;23.332;2024-02-21T09:49:33;95184.75;;;6.73;73.19
65832;BME280;52593;42.648;23.332;2024-02-21T09:52:04;95168.81;;;6.73;73.12
65832;BME280;52593;42.648;23.332;2024-02-21T09:54:30;95178.47;;;6.74;73.93
65832;BME280;52593;42.648;23.332;2024-02-21T09:57:02;95174.91;;;6.93;73.10
65832;BME280;52593;42.648;23.332;2024-02-21T09:59:30;95181.53;;;6.79;72.35
65832;BME280;52593;42.648;23.332;2024-02-21T10:01:56;95166.78;;;6.95;72.23
65832;BME280;52593;42.648;23.332;2024-02-21T10:04:23;95165.59;;;7.07;71.87
65832;BME280;52593;42.648;23.332;2024-02-21T10:06:49;95161.75;;;7.20;71.00
65832;BME280;52593;42.648;23.332;2024-02-21T10:09:24;95166.53;;;7.26;69.83
65832;BME280;52593;42.648;23.332;2024-02-21T10:11:53;95169.50;;;7.41;69.68
65832;BME280;52593;42.648;23.332;2024-02-21T10:14:18;95159.00;;;7.39;68.59
65832;BME280;52593;42.648;23.332;2024-02-21T10:16:48;95153.06;;;7.45;68.13
65832;BME280;52593;42.648;23.332;2024-02-21T10:19:20;95151.03;;;7.57;65.73
65832;BME280;52593;42.648;23.332;2024-02-21T10:22:06;95152.09;;;7.46;65.13
65832;BME280;52593;42.648;23.332;2024-02-21T10:24:33;95147.31;;;7.50;66.11
65832;BME280;52593;42.648;23.332;2024-02-21T10:29:25;95145.75;;;7.75;65.17
65832;BME280;52593;42.648;23.332;2024-02-21T10:31:51;95146.19;;;7.89;64.92
65832;BME280;52593;42.648;23.332;2024-02-21T10:34:16;95133.25;;;7.94;64.22
65832;BME280;52593;42.648;23.332;2024-02-21T10:36:43;95132.66;;;8.00;64.06
65832;BME280;52593;42.648;23.332;2024-02-21T10:39:08;95109.03;;;8.05;64.13
65832;BME280;52593;42.648;23.332;2024-02-21T10:41:35;95115.38;;;8.04;63.12
65832;BME280;52593;42.648;23.332;2024-02-21T10:44:05;95107.44;;;8.12;62.88
65832;BME280;52593;42.648;23.332;2024-02-21T10:46:32;95104.63;;;7.96;61.86
65832;BME280;52593;42.648;23.332;2024-02-21T10:49:32;95102.25;;;8.11;62.12
65832;BME280;52593;42.648;23.332;2024-02-21T10:55:03;95086.50;;;8.44;60.59
65832;BME280;52593;42.648;23.332;2024-02-21T10:57:29;95078.47;;;8.17;60.52
65832;BME280;52593;42.648;23.332;2024-02-21T10:59:56;95085.00;;;8.23;60.71
65832;BME280;52593;42.648;23.332;2024-02-21T11:02:24;95080.59;;;8.32;57.84
65832;BME280;52593;42.648;23.332;2024-02-21T11:04:50;95085.09;;;8.57;56.76
65832;BME280;52593;42.648;23.332;2024-02-21T11:07:18;95079.94;;;8.99;56.58
65832;BME280;52593;42.648;23.332;2024-02-21T11:09:51;95066.31;;;8.67;57.46
65832;BME280;52593;42.648;23.332;2024-02-21T11:12:21;95073.53;;;8.83;56.10
65832;BME280;52593;42.648;23.332;2024-02-21T11:14:47;95069.09;;;9.00;56.08
65832;BME280;52593;42.648;23.332;2024-02-21T11:17:19;95064.53;;;9.27;54.27
65832;BME280;52593;42.648;23.332;2024-02-21T11:19:46;95064.44;;;9.53;53.97
65832;BME280;52593;42.648;23.332;2024-02-21T11:22:19;95073.09;;;9.39;52.19
65832;BME280;52593;42.648;23.332;2024-02-21T11:24:46;95063.16;;;9.15;53.33
65832;BME280;52593;42.648;23.332;2024-02-21T11:27:13;95064.72;;;9.34;53.59
65832;BME280;52593;42.648;23.332;2024-02-21T11:29:46;95051.91;;;9.78;52.75
65832;BME280;52593;42.648;23.332;2024-02-21T11:32:16;95060.72;;;9.46;53.03
65832;BME280;52593;42.648;23.332;2024-02-21T11:34:59;95060.28;;;9.08;53.31
65832;BME280;52593;42.648;23.332;2024-02-21T11:37:29;95049.59;;;8.91;53.88
65832;BME280;52593;42.648;23.332;2024-02-21T11:39:55;95062.38;;;8.80;54.86
65832;BME280;52593;42.648;23.332;2024-02-21T11:42:21;95055.59;;;9.02;54.71
65832;BME280;52593;42.648;23.332;2024-02-21T11:44:48;95044.41;;;8.98;54.46
65832;BME280;52593;42.648;23.332;2024-02-21T11:47:14;95048.88;;;8.89;54.96
65832;BME280;52593;42.648;23.332;2024-02-21T11:49:46;95037.88;;;8.84;55.69
65832;BME280;52593;42.648;23.332;2024-02-21T11:52:12;95036.66;;;8.70;54.79
65832;BME280;52593;42.648;23.332;2024-02-21T11:54:41;95039.34;;;8.44;55.17
65832;BME280;52593;42.648;23.332;2024-02-21T11:57:07;95038.06;;;8.30;54.90
65832;BME280;52593;42.648;23.332;2024-02-21T11:59:33;95030.91;;;8.31;54.90
65832;BME280;52593;42.648;23.332;2024-02-21T12:02:00;95040.47;;;8.42;54.97
65832;BME280;52593;42.648;23.332;2024-02-21T12:04:26;95046.63;;;8.42;55.37
65832;BME280;52593;42.648;23.332;2024-02-21T12:06:52;95044.38;;;8.47;55.51
65832;BME280;52593;42.648;23.332;2024-02-21T12:09:18;95036.09;;;8.32;55.76
65832;BME280;52593;42.648;23.332;2024-02-21T12:11:44;95034.56;;;8.30;55.38
65832;BME280;52593;42.648;23.332;2024-02-21T12:14:10;95032.78;;;8.38;55.99
65832;BME280;52593;42.648;23.332;2024-02-21T12:16:36;95030.03;;;8.48;55.97
65832;BME280;52593;42.648;23.332;2024-02-21T12:19:05;95023.03;;;8.47;56.05
65832;BME280;52593;42.648;23.332;2024-02-21T12:21:31;95030.03;;;8.48;56.77
65832;BME280;52593;42.648;23.332;2024-02-21T12:23:58;95013.09;;;8.57;55.87
65832;BME280;52593;42.648;23.332;2024-02-21T12:26:25;95018.38;;;8.49;55.80
65832;BME280;52593;42.648;23.332;2024-02-21T12:28:51;95016.78;;;8.38;56.76
65832;BME280;52593;42.648;23.332;2024-02-21T12:31:16;95019.97;;;8.42;57.73
65832;BME280;52593;42.648;23.332;2024-02-21T12:33:43;95022.16;;;8.20;57.76
65832;BME280;52593;42.648;23.332;2024-02-21T12:36:08;95018.31;;;8.15;57.23
65832;BME280;52593;42.648;23.332;2024-02-21T12:38:35;95015.50;;;7.90;56.75
65832;BME280;52593;42.648;23.332;2024-02-21T12:41:00;94999.22;;;7.75;58.64
65832;BME280;52593;42.648;23.332;2024-02-21T12:43:26;95015.09;;;7.85;57.87
65832;BME280;52593;42.648;23.332;2024-02-21T12:45:52;95013.88;;;7.79;57.75
65832;BME280;52593;42.648;23.332;2024-02-21T12:48:18;95010.03;;;7.74;57.90
65832;BME280;52593;42.648;23.332;2024-02-21T12:50:50;95022.28;;;7.84;57.98
65832;BME280;52593;42.648;23.332;2024-02-21T12:53:19;95005.44;;;7.84;58.02
65832;BME280;52593;42.648;23.332;2024-02-21T12:55:50;95002.03;;;7.92;58.06
65832;BME280;52593;42.648;23.332;2024-02-21T12:58:16;95004.56;;;8.01;58.13
65832;BME280;52593;42.648;23.332;2024-02-21T13:00:41;95004.94;;;8.07;57.55
65832;BME280;52593;42.648;23.332;2024-02-21T13:03:07;95002.16;;;8.16;58.12